sensor_id;sensor_type;location;lat;lon;timestamp;pressure;altitude;pressure_sealevel;temperature;humidity
49072;BME280;52656;52.610;10.236;2023-06-14T00:01:00;101258.91;;;18.92;45.20
49072;BME280;52656;52.610;10.236;2023-06-14T00:03:28;101253.38;;;18.39;46.41
49072;BME280;52656;52.610;10.236;2023-06-14T00:05:53;101259.28;;;18.73;45.69
49072;BME280;52656;52.610;10.236;2023-06-14T00:08:19;101267.97;;;18.49;45.85
49072;BME280;52656;52.610;10.236;2023-06-14T00:10:46;101265.88;;;18.82;45.11
49072;BME280;52656;52.610;10.236;2023-06-14T00:13:11;101271.78;;;18.45;45.74
49072;BME280;52656;52.610;10.236;2023-06-14T00:15:37;101270.91;;;18.59;45.44
49072;BME280;52656;52.610;10.236;2023-06-14T00:18:02;101271.22;;;18.40;45.97
49072;BME280;52656;52.610;10.236;2023-06-14T00:20:29;101272.56;;;18.47;45.79
49072;BME280;52656;52.610;10.236;2023-06-14T00:22:56;101272.16;;;18.39;45.56
49072;BME280;52656;52.610;10.236;2023-06-14T00:25:24;101276.28;;;18.59;45.25
49072;BME280;52656;52.610;10.236;2023-06-14T00:27:54;101266.78;;;18.68;44.74
49072;BME280;52656;52.610;10.236;2023-06-14T00:30:20;101276.09;;;18.48;45.17
49072;BME280;52656;52.610;10.236;2023-06-14T00:32:45;101274.66;;;18.42;45.43
49072;BME280;52656;52.610;10.236;2023-06-14T00:35:10;101274.19;;;18.50;45.19
49072;BME280;52656;52.610;10.236;2023-06-14T00:37:36;101272.25;;;18.38;45.39
49072;BME280;52656;52.610;10.236;2023-06-14T00:40:02;101273.97;;;18.39;45.28
49072;BME280;52656;52.610;10.236;2023-06-14T00:42:28;101286.56;;;18.24;45.59
49072;BME280;52656;52.610;10.236;2023-06-14T00:44:53;101279.16;;;18.42;45.36
49072;BME280;52656;52.610;10.236;2023-06-14T00:47:19;101281.09;;;18.54;44.98
49072;BME280;52656;52.610;10.236;2023-06-14T00:49:46;101278.59;;;18.37;45.65
49072;BME280;52656;52.610;10.236;2023-06-14T00:52:16;101286.75;;;18.49;45.40
49072;BME280;52656;52.610;10.236;2023-06-14T00:54:41;101287.31;;;18.55;45.23
49072;BME280;52656;52.610;10.236;2023-06-14T00:57:07;101280.72;;;18.32;46.07
49072;BME280;52656;52.610;10.236;2023-06-14T00:59:35;101287.50;;;18.51;45.29
49072;BME280;52656;52.610;10.236;2023-06-14T01:02:03;101289.31;;;18.37;46.01
49072;BME280;52656;52.610;10.236;2023-06-14T01:04:29;101279.00;;;18.31;46.38
49072;BME280;52656;52.610;10.236;2023-06-14T01:12:37;101280.72;;;18.17;46.75
49072;BME280;52656;52.610;10.236;2023-06-14T01:15:04;101277.09;;;18.04;47.03
49072;BME280;52656;52.610;10.236;2023-06-14T01:17:31;101281.78;;;17.86;47.61
49072;BME280;52656;52.610;10.236;2023-06-14T01:20:00;101288.97;;;17.86;47.72
49072;BME280;52656;52.610;10.236;2023-06-14T01:22:26;101285.09;;;17.75;47.95
49072;BME280;52656;52.610;10.236;2023-06-14T01:24:52;101280.25;;;17.82;47.83
49072;BME280;52656;52.610;10.236;2023-06-14T01:27:22;101279.44;;;17.66;48.02
49072;BME280;52656;52.610;10.236;2023-06-14T01:29:50;101287.81;;;17.45;48.57
49072;BME280;52656;52.610;10.236;2023-06-14T01:32:17;101277.56;;;17.52;48.31
49072;BME280;52656;52.610;10.236;2023-06-14T01:34:43;101280.06;;;17.55;48.19
49072;BME280;52656;52.610;10.236;2023-06-14T01:37:08;101276.88;;;17.64;47.72
49072;BME280;52656;52.610;10.236;2023-06-14T01:39:35;101288.09;;;17.41;48.64
49072;BME280;52656;52.610;10.236;2023-06-14T01:42:00;101284.31;;;17.29;48.96
49072;BME280;52656;52.610;10.236;2023-06-14T01:44:26;101293.34;;;17.42;48.52
49072;BME280;52656;52.610;10.236;2023-06-14T01:46:52;101290.47;;;17.45;48.42
49072;BME280;52656;52.610;10.236;2023-06-14T01:49:18;101289.53;;;17.46;48.52
49072;BME280;52656;52.610;10.236;2023-06-14T01:51:43;101286.56;;;17.51;47.81
49072;BME280;52656;52.610;10.236;2023-06-14T01:54:09;101292.88;;;17.50;48.05
49072;BME280;52656;52.610;10.236;2023-06-14T01:56:34;101297.53;;;17.32;48.63
49072;BME280;52656;52.610;10.236;2023-06-14T01:58:59;101295.69;;;17.33;48.60
49072;BME280;52656;52.610;10.236;2023-06-14T02:01:25;101294.19;;;17.43;48.00
49072;BME280;52656;52.610;10.236;2023-06-14T02:03:51;101296.41;;;17.20;49.14
49072;BME280;52656;52.610;10.236;2023-06-14T02:06:18;101284.91;;;17.04;49.36
49072;BME280;52656;52.610;10.236;2023-06-14T02:08:44;101299.78;;;17.24;48.92
49072;BME280;52656;52.610;10.236;2023-06-14T02:11:09;101298.88;;;16.93;49.71
49072;BME280;52656;52.610;10.236;2023-06-14T02:13:35;101284.63;;;17.09;49.30
49072;BME280;52656;52.610;10.236;2023-06-14T02:16:00;101289.19;;;17.07;49.32
49072;BME280;52656;52.610;10.236;2023-06-14T02:18:26;101292.78;;;16.91;49.78
49072;BME280;52656;52.610;10.236;2023-06-14T02:20:52;101297.31;;;17.05;49.43
49072;BME280;52656;52.610;10.236;2023-06-14T02:23:17;101297.50;;;17.02;49.51
49072;BME280;52656;52.610;10.236;2023-06-14T02:25:43;101302.09;;;16.84;50.22
49072;BME280;52656;52.610;10.236;2023-06-14T02:28:10;101294.06;;;16.84;50.30
49072;BME280;52656;52.610;10.236;2023-06-14T02:30:35;101291.66;;;16.80;50.33
49072;BME280;52656;52.610;10.236;2023-06-14T02:33:01;101297.19;;;16.77;50.62
49072;BME280;52656;52.610;10.236;2023-06-14T02:35:26;101300.28;;;16.69;50.68
49072;BME280;52656;52.610;10.236;2023-06-14T02:37:52;101298.22;;;16.74;50.65
49072;BME280;52656;52.610;10.236;2023-06-14T02:40:19;101294.41;;;16.78;50.60
49072;BME280;52656;52.610;10.236;2023-06-14T02:42:44;101299.28;;;16.71;50.49
49072;BME280;52656;52.610;10.236;2023-06-14T02:45:10;101302.94;;;16.85;50.27
49072;BME280;52656;52.610;10.236;2023-06-14T02:47:35;101300.47;;;16.82;50.41
49072;BME280;52656;52.610;10.236;2023-06-14T02:50:01;101307.69;;;16.95;49.96
49072;BME280;52656;52.610;10.236;2023-06-14T02:52:27;101308.72;;;16.93;49.56
49072;BME280;52656;52.610;10.236;2023-06-14T02:54:53;101311.59;;;16.74;50.52
49072;BME280;52656;52.610;10.236;2023-06-14T02:57:19;101314.06;;;16.61;50.75
49072;BME280;52656;52.610;10.236;2023-06-14T02:59:45;101309.78;;;16.74;50.56
49072;BME280;52656;52.610;10.236;2023-06-14T03:02:10;101320.78;;;16.37;51.85
49072;BME280;52656;52.610;10.236;2023-06-14T03:04:35;101322.75;;;16.33;51.67
49072;BME280;52656;52.610;10.236;2023-06-14T03:07:03;101321.13;;;16.46;51.34
49072;BME280;52656;52.610;10.236;2023-06-14T03:09:37;101325.63;;;16.46;51.83
49072;BME280;52656;52.610;10.236;2023-06-14T03:12:04;101324.00;;;16.75;50.86
49072;BME280;52656;52.610;10.236;2023-06-14T03:14:30;101327.69;;;16.57;51.79
49072;BME280;52656;52.610;10.236;2023-06-14T03:16:55;101324.75;;;16.61;51.51
49072;BME280;52656;52.610;10.236;2023-06-14T03:19:22;101331.03;;;16.78;50.85
49072;BME280;52656;52.610;10.236;2023-06-14T03:21:48;101330.91;;;16.79;50.77
49072;BME280;52656;52.610;10.236;2023-06-14T03:24:14;101340.75;;;16.63;51.96
49072;BME280;52656;52.610;10.236;2023-06-14T03:26:41;101337.38;;;16.75;51.50
49072;BME280;52656;52.610;10.236;2023-06-14T03:29:06;101341.19;;;16.87;50.86
49072;BME280;52656;52.610;10.236;2023-06-14T03:31:31;101341.47;;;16.82;50.58
49072;BME280;52656;52.610;10.236;2023-06-14T03:33:58;101344.84;;;16.86;50.81
49072;BME280;52656;52.610;10.236;2023-06-14T03:36:23;101351.09;;;16.85;50.75
49072;BME280;52656;52.610;10.236;2023-06-14T03:38:48;101348.44;;;16.85;50.90
49072;BME280;52656;52.610;10.236;2023-06-14T03:41:14;101354.22;;;16.93;50.49
49072;BME280;52656;52.610;10.236;2023-06-14T03:43:39;101361.56;;;17.05;50.49
49072;BME280;52656;52.610;10.236;2023-06-14T03:46:04;101366.22;;;17.01;50.43
49072;BME280;52656;52.610;10.236;2023-06-14T03:48:30;101373.16;;;16.90;50.96
49072;BME280;52656;52.610;10.236;2023-06-14T03:50:55;101372.69;;;16.97;50.70
49072;BME280;52656;52.610;10.236;2023-06-14T03:53:21;101379.59;;;17.01;50.63
49072;BME280;52656;52.610;10.236;2023-06-14T03:55:49;101381.41;;;17.01;50.70
49072;BME280;52656;52.610;10.236;2023-06-14T03:58:15;101387.56;;;17.03;50.76
49072;BME280;52656;52.610;10.236;2023-06-14T04:00:40;101388.44;;;17.49;49.45
49072;BME280;52656;52.610;10.236;2023-06-14T04:03:05;101388.56;;;17.32;49.90
49072;BME280;52656;52.610;10.236;2023-06-14T04:05:31;101394.41;;;17.55;49.47
49072;BME280;52656;52.610;10.236;2023-06-14T04:07:56;101397.66;;;17.60;49.50
49072;BME280;52656;52.610;10.236;2023-06-14T04:10:22;101393.25;;;17.74;49.35
49072;BME280;52656;52.610;10.236;2023-06-14T04:12:48;101397.75;;;18.18;48.09
49072;BME280;52656;52.610;10.236;2023-06-14T04:15:14;101386.72;;;18.94;46.72
49072;BME280;52656;52.610;10.236;2023-06-14T04:17:39;101377.69;;;21.15;41.80
49072;BME280;52656;52.610;10.236;2023-06-14T04:20:05;101379.91;;;23.17;37.96
49072;BME280;52656;52.610;10.236;2023-06-14T04:22:32;101374.53;;;24.33;35.58
49072;BME280;52656;52.610;10.236;2023-06-14T04:24:58;101366.00;;;25.37;33.85
49072;BME280;52656;52.610;10.236;2023-06-14T04:27:24;101372.28;;;25.96;32.31
49072;BME280;52656;52.610;10.236;2023-06-14T04:29:54;101377.56;;;26.07;32.21
49072;BME280;52656;52.610;10.236;2023-06-14T04:32:24;101373.13;;;26.53;31.47
49072;BME280;52656;52.610;10.236;2023-06-14T04:34:55;101377.22;;;26.94;30.50
49072;BME280;52656;52.610;10.236;2023-06-14T04:37:21;101381.03;;;27.01;30.15
49072;BME280;52656;52.610;10.236;2023-06-14T04:39:48;101385.31;;;27.67;29.47
49072;BME280;52656;52.610;10.236;2023-06-14T04:42:13;101381.31;;;27.44;29.84
49072;BME280;52656;52.610;10.236;2023-06-14T04:44:41;101381.41;;;28.40;28.78
49072;BME280;52656;52.610;10.236;2023-06-14T04:47:06;101383.50;;;28.80;28.37
49072;BME280;52656;52.610;10.236;2023-06-14T04:49:32;101388.28;;;29.45;27.74
49072;BME280;52656;52.610;10.236;2023-06-14T04:51:59;101399.47;;;29.17;27.75
49072;BME280;52656;52.610;10.236;2023-06-14T04:54:26;101412.88;;;27.37;29.28
49072;BME280;52656;52.610;10.236;2023-06-14T04:56:52;101399.16;;;28.52;28.84
49072;BME280;52656;52.610;10.236;2023-06-14T04:59:18;101391.19;;;29.76;26.40
49072;BME280;52656;52.610;10.236;2023-06-14T05:01:44;101390.41;;;31.57;24.82
49072;BME280;52656;52.610;10.236;2023-06-14T05:04:17;101391.03;;;29.86;26.63
49072;BME280;52656;52.610;10.236;2023-06-14T05:06:43;101386.91;;;29.65;26.16
49072;BME280;52656;52.610;10.236;2023-06-14T05:09:10;101392.88;;;28.51;27.51
49072;BME280;52656;52.610;10.236;2023-06-14T05:11:36;101393.97;;;30.56;25.60
49072;BME280;52656;52.610;10.236;2023-06-14T05:14:01;101388.13;;;32.21;23.80
49072;BME280;52656;52.610;10.236;2023-06-14T05:16:26;101382.53;;;31.00;24.92
49072;BME280;52656;52.610;10.236;2023-06-14T05:18:52;101392.72;;;31.83;24.33
49072;BME280;52656;52.610;10.236;2023-06-14T05:21:18;101401.97;;;31.36;24.57
49072;BME280;52656;52.610;10.236;2023-06-14T05:23:44;101400.25;;;31.12;24.93
49072;BME280;52656;52.610;10.236;2023-06-14T05:26:10;101400.41;;;31.42;23.95
49072;BME280;52656;52.610;10.236;2023-06-14T05:28:36;101402.53;;;31.00;24.86
49072;BME280;52656;52.610;10.236;2023-06-14T05:31:01;101415.72;;;30.49;25.16
49072;BME280;52656;52.610;10.236;2023-06-14T05:33:27;101408.13;;;32.96;23.01
49072;BME280;52656;52.610;10.236;2023-06-14T05:35:52;101409.59;;;32.77;23.11
49072;BME280;52656;52.610;10.236;2023-06-14T05:38:18;101402.38;;;35.37;20.51
49072;BME280;52656;52.610;10.236;2023-06-14T05:40:43;101402.22;;;35.58;20.23
49072;BME280;52656;52.610;10.236;2023-06-14T05:43:08;101403.09;;;36.31;20.00
49072;BME280;52656;52.610;10.236;2023-06-14T05:45:33;101403.34;;;37.90;18.42
49072;BME280;52656;52.610;10.236;2023-06-14T05:47:59;101404.75;;;37.42;18.57
49072;BME280;52656;52.610;10.236;2023-06-14T05:50:24;101414.56;;;32.88;21.60
49072;BME280;52656;52.610;10.236;2023-06-14T05:52:50;101410.56;;;33.42;21.55
49072;BME280;52656;52.610;10.236;2023-06-14T05:55:16;101405.66;;;34.57;20.00
49072;BME280;52656;52.610;10.236;2023-06-14T05:57:42;101410.19;;;33.45;21.27
49072;BME280;52656;52.610;10.236;2023-06-14T06:00:08;101415.03;;;33.43;21.76
49072;BME280;52656;52.610;10.236;2023-06-14T06:02:42;101415.59;;;30.82;24.28
49072;BME280;52656;52.610;10.236;2023-06-14T06:05:11;101414.88;;;32.93;21.42
49072;BME280;52656;52.610;10.236;2023-06-14T06:07:37;101424.19;;;34.83;20.09
49072;BME280;52656;52.610;10.236;2023-06-14T06:10:04;101424.66;;;34.24;20.24
49072;BME280;52656;52.610;10.236;2023-06-14T06:12:30;101420.66;;;35.64;19.71
49072;BME280;52656;52.610;10.236;2023-06-14T06:14:55;101426.09;;;32.24;21.91
49072;BME280;52656;52.610;10.236;2023-06-14T06:17:21;101416.63;;;33.73;21.00
49072;BME280;52656;52.610;10.236;2023-06-14T06:19:46;101430.41;;;31.04;23.21
49072;BME280;52656;52.610;10.236;2023-06-14T06:22:11;101429.56;;;31.03;23.93
49072;BME280;52656;52.610;10.236;2023-06-14T06:24:37;101431.81;;;32.82;21.41
49072;BME280;52656;52.610;10.236;2023-06-14T06:27:03;101434.22;;;32.18;22.42
49072;BME280;52656;52.610;10.236;2023-06-14T06:29:28;101435.88;;;31.66;23.03
49072;BME280;52656;52.610;10.236;2023-06-14T06:31:53;101435.34;;;33.85;21.38
49072;BME280;52656;52.610;10.236;2023-06-14T06:34:19;101442.59;;;30.85;23.52
49072;BME280;52656;52.610;10.236;2023-06-14T06:36:44;101451.19;;;33.10;22.12
49072;BME280;52656;52.610;10.236;2023-06-14T06:39:09;101432.31;;;36.66;18.70
49072;BME280;52656;52.610;10.236;2023-06-14T06:41:37;101437.22;;;36.57;17.93
49072;BME280;52656;52.610;10.236;2023-06-14T06:44:05;101445.16;;;33.72;20.57
49072;BME280;52656;52.610;10.236;2023-06-14T06:46:30;101445.41;;;34.20;19.98
49072;BME280;52656;52.610;10.236;2023-06-14T06:48:55;101435.88;;;37.31;17.76
49072;BME280;52656;52.610;10.236;2023-06-14T06:51:20;101440.28;;;34.17;20.46
49072;BME280;52656;52.610;10.236;2023-06-14T06:53:52;101446.41;;;34.75;19.61
49072;BME280;52656;52.610;10.236;2023-06-14T06:56:18;101453.81;;;35.16;19.40
49072;BME280;52656;52.610;10.236;2023-06-14T06:58:43;101448.66;;;34.65;19.95
49072;BME280;52656;52.610;10.236;2023-06-14T07:01:08;101460.06;;;34.06;19.97
49072;BME280;52656;52.610;10.236;2023-06-14T07:03:34;101457.81;;;34.72;19.58
49072;BME280;52656;52.610;10.236;2023-06-14T07:06:00;101451.97;;;34.89;19.73
49072;BME280;52656;52.610;10.236;2023-06-14T07:08:26;101455.41;;;35.39;18.55
49072;BME280;52656;52.610;10.236;2023-06-14T07:10:52;101454.25;;;37.50;16.92
49072;BME280;52656;52.610;10.236;2023-06-14T07:13:17;101459.25;;;36.70;18.01
49072;BME280;52656;52.610;10.236;2023-06-14T07:15:43;101462.19;;;35.56;18.46
49072;BME280;52656;52.610;10.236;2023-06-14T07:18:08;101455.22;;;36.79;18.14
49072;BME280;52656;52.610;10.236;2023-06-14T07:20:34;101461.66;;;35.19;18.92
49072;BME280;52656;52.610;10.236;2023-06-14T07:22:59;101468.53;;;33.62;20.11
49072;BME280;52656;52.610;10.236;2023-06-14T07:25:24;101468.50;;;32.96;20.43
49072;BME280;52656;52.610;10.236;2023-06-14T07:27:50;101473.50;;;35.88;17.94
49072;BME280;52656;52.610;10.236;2023-06-14T07:30:15;101463.66;;;35.45;18.62
49072;BME280;52656;52.610;10.236;2023-06-14T07:32:41;101458.63;;;34.66;19.54
49072;BME280;52656;52.610;10.236;2023-06-14T07:35:07;101454.72;;;36.96;17.58
49072;BME280;52656;52.610;10.236;2023-06-14T07:37:32;101443.38;;;33.86;20.33
49072;BME280;52656;52.610;10.236;2023-06-14T07:39:58;101454.41;;;35.66;19.19
49072;BME280;52656;52.610;10.236;2023-06-14T07:42:23;101446.44;;;37.41;17.31
49072;BME280;52656;52.610;10.236;2023-06-14T07:44:48;101454.78;;;34.95;19.08
49072;BME280;52656;52.610;10.236;2023-06-14T07:47:15;101448.34;;;34.81;18.87
49072;BME280;52656;52.610;10.236;2023-06-14T07:49:40;101443.66;;;35.23;18.86
49072;BME280;52656;52.610;10.236;2023-06-14T07:52:06;101442.31;;;34.65;19.60
49072;BME280;52656;52.610;10.236;2023-06-14T07:54:32;101441.28;;;36.08;18.48
49072;BME280;52656;52.610;10.236;2023-06-14T07:56:57;101445.31;;;35.11;19.35
49072;BME280;52656;52.610;10.236;2023-06-14T07:59:25;101445.88;;;37.19;17.79
49072;BME280;52656;52.610;10.236;2023-06-14T08:01:50;101450.47;;;34.23;20.16
49072;BME280;52656;52.610;10.236;2023-06-14T08:04:16;101444.25;;;37.04;17.73
49072;BME280;52656;52.610;10.236;2023-06-14T08:06:41;101447.28;;;34.82;18.99
49072;BME280;52656;52.610;10.236;2023-06-14T08:09:11;101435.75;;;35.75;18.47
49072;BME280;52656;52.610;10.236;2023-06-14T08:11:36;101447.44;;;36.17;18.08
49072;BME280;52656;52.610;10.236;2023-06-14T08:14:02;101440.72;;;33.35;20.87
49072;BME280;52656;52.610;10.236;2023-06-14T08:16:27;101434.50;;;36.04;18.40
49072;BME280;52656;52.610;10.236;2023-06-14T08:18:52;101432.72;;;34.54;19.41
49072;BME280;52656;52.610;10.236;2023-06-14T08:21:18;101435.13;;;34.36;19.84
49072;BME280;52656;52.610;10.236;2023-06-14T08:23:43;101457.97;;;33.65;19.63
49072;BME280;52656;52.610;10.236;2023-06-14T08:26:09;101444.69;;;36.17;17.77
49072;BME280;52656;52.610;10.236;2023-06-14T08:28:35;101442.53;;;35.04;19.12
49072;BME280;52656;52.610;10.236;2023-06-14T08:31:00;101448.03;;;34.70;19.15
49072;BME280;52656;52.610;10.236;2023-06-14T08:33:26;101432.16;;;35.94;18.47
49072;BME280;52656;52.610;10.236;2023-06-14T08:35:52;101436.16;;;35.52;18.85
49072;BME280;52656;52.610;10.236;2023-06-14T08:38:17;101446.88;;;34.51;19.42
49072;BME280;52656;52.610;10.236;2023-06-14T08:40:44;101434.69;;;35.96;18.65
49072;BME280;52656;52.610;10.236;2023-06-14T08:43:10;101443.75;;;37.91;17.02
49072;BME280;52656;52.610;10.236;2023-06-14T08:45:35;101455.50;;;35.85;18.55
49072;BME280;52656;52.610;10.236;2023-06-14T08:48:01;101443.53;;;35.45;18.95
49072;BME280;52656;52.610;10.236;2023-06-14T08:50:27;101450.31;;;36.75;17.32
49072;BME280;52656;52.610;10.236;2023-06-14T08:52:56;101443.25;;;34.16;19.88
49072;BME280;52656;52.610;10.236;2023-06-14T08:55:23;101465.34;;;35.46;18.31
49072;BME280;52656;52.610;10.236;2023-06-14T08:57:54;101440.50;;;33.94;20.03
49072;BME280;52656;52.610;10.236;2023-06-14T09:00:20;101440.78;;;33.99;19.89
49072;BME280;52656;52.610;10.236;2023-06-14T09:02:46;101482.84;;;34.21;19.98
49072;BME280;52656;52.610;10.236;2023-06-14T09:05:12;101437.59;;;35.41;18.86
49072;BME280;52656;52.610;10.236;2023-06-14T09:07:40;101443.94;;;34.52;19.63
49072;BME280;52656;52.610;10.236;2023-06-14T09:10:08;101438.94;;;36.05;18.70
49072;BME280;52656;52.610;10.236;2023-06-14T09:12:35;101448.81;;;36.72;18.24
49072;BME280;52656;52.610;10.236;2023-06-14T09:15:00;101445.50;;;34.62;19.80
49072;BME280;52656;52.610;10.236;2023-06-14T09:17:32;101454.00;;;36.09;18.56
49072;BME280;52656;52.610;10.236;2023-06-14T09:19:58;101445.59;;;34.81;19.48
49072;BME280;52656;52.610;10.236;2023-06-14T09:22:23;101445.50;;;35.71;18.99
49072;BME280;52656;52.610;10.236;2023-06-14T09:24:49;101440.03;;;34.12;20.50
49072;BME280;52656;52.610;10.236;2023-06-14T09:27:15;101436.16;;;35.72;18.84
49072;BME280;52656;52.610;10.236;2023-06-14T09:29:41;101436.22;;;35.24;19.45
49072;BME280;52656;52.610;10.236;2023-06-14T09:32:06;101445.28;;;36.19;18.75
49072;BME280;52656;52.610;10.236;2023-06-14T09:34:33;101449.13;;;36.31;18.17
49072;BME280;52656;52.610;10.236;2023-06-14T09:36:58;101437.84;;;35.53;19.56
49072;BME280;52656;52.610;10.236;2023-06-14T09:39:23;101436.66;;;37.38;17.65
49072;BME280;52656;52.610;10.236;2023-06-14T09:41:50;101448.03;;;34.35;20.26
49072;BME280;52656;52.610;10.236;2023-06-14T09:44:15;101449.41;;;35.35;19.76
49072;BME280;52656;52.610;10.236;2023-06-14T09:46:43;101434.28;;;36.25;18.75
49072;BME280;52656;52.610;10.236;2023-06-14T09:49:09;101454.53;;;34.27;20.92
49072;BME280;52656;52.610;10.236;2023-06-14T09:51:36;101456.97;;;36.27;19.61
49072;BME280;52656;52.610;10.236;2023-06-14T09:54:08;101432.75;;;35.83;19.78
49072;BME280;52656;52.610;10.236;2023-06-14T09:56:38;101437.66;;;35.61;19.89
49072;BME280;52656;52.610;10.236;2023-06-14T09:59:06;101430.34;;;37.31;18.72
49072;BME280;52656;52.610;10.236;2023-06-14T10:01:35;101438.94;;;36.05;18.75
49072;BME280;52656;52.610;10.236;2023-06-14T10:04:03;101445.06;;;36.47;18.22
49072;BME280;52656;52.610;10.236;2023-06-14T10:06:29;101425.91;;;37.23;18.08
49072;BME280;52656;52.610;10.236;2023-06-14T10:08:59;101419.97;;;37.26;18.05
49072;BME280;52656;52.610;10.236;2023-06-14T10:11:26;101424.44;;;33.48;22.24
49072;BME280;52656;52.610;10.236;2023-06-14T10:13:53;101435.59;;;30.91;24.38
49072;BME280;52656;52.610;10.236;2023-06-14T10:16:24;101441.69;;;30.29;25.40
49072;BME280;52656;52.610;10.236;2023-06-14T10:19:17;101441.88;;;30.19;26.01
49072;BME280;52656;52.610;10.236;2023-06-14T10:24:17;101427.47;;;32.73;22.45
49072;BME280;52656;52.610;10.236;2023-06-14T10:26:51;101432.22;;;32.49;23.10
49072;BME280;52656;52.610;10.236;2023-06-14T10:29:17;101430.91;;;31.39;23.93
49072;BME280;52656;52.610;10.236;2023-06-14T10:31:44;101429.22;;;29.45;26.52
49072;BME280;52656;52.610;10.236;2023-06-14T10:34:11;101417.97;;;29.72;26.02
49072;BME280;52656;52.610;10.236;2023-06-14T10:36:38;101424.50;;;29.96;26.08
49072;BME280;52656;52.610;10.236;2023-06-14T10:39:18;101411.16;;;30.17;25.19
49072;BME280;52656;52.610;10.236;2023-06-14T10:41:52;101412.66;;;29.30;26.79
49072;BME280;52656;52.610;10.236;2023-06-14T10:46:47;101398.00;;;30.85;25.01
49072;BME280;52656;52.610;10.236;2023-06-14T10:49:16;101412.84;;;30.35;25.17
49072;BME280;52656;52.610;10.236;2023-06-14T10:51:45;101405.25;;;31.08;24.88
49072;BME280;52656;52.610;10.236;2023-06-14T10:54:14;101408.56;;;30.96;24.19
49072;BME280;52656;52.610;10.236;2023-06-14T10:56:53;101407.25;;;29.71;25.79
49072;BME280;52656;52.610;10.236;2023-06-14T10:59:19;101404.75;;;30.57;25.28
49072;BME280;52656;52.610;10.236;2023-06-14T11:02:04;101400.59;;;29.90;25.60
49072;BME280;52656;52.610;10.236;2023-06-14T11:04:50;101405.69;;;29.44;26.03
49072;BME280;52656;52.610;10.236;2023-06-14T11:12:54;101401.94;;;28.26;27.22
49072;BME280;52656;52.610;10.236;2023-06-14T11:15:20;101405.75;;;28.15;27.69
49072;BME280;52656;52.610;10.236;2023-06-14T11:17:51;101398.69;;;29.41;25.99
49072;BME280;52656;52.610;10.236;2023-06-14T11:20:18;101404.47;;;28.53;26.48
49072;BME280;52656;52.610;10.236;2023-06-14T11:22:45;101394.47;;;28.62;26.70
49072;BME280;52656;52.610;10.236;2023-06-14T11:25:14;101408.94;;;28.11;27.12
49072;BME280;52656;52.610;10.236;2023-06-14T11:27:42;101414.66;;;27.99;27.29
49072;BME280;52656;52.610;10.236;2023-06-14T11:30:08;101383.88;;;27.45;26.97
49072;BME280;52656;52.610;10.236;2023-06-14T11:32:35;101395.44;;;27.47;27.43
49072;BME280;52656;52.610;10.236;2023-06-14T11:35:02;101392.31;;;27.96;26.89
49072;BME280;52656;52.610;10.236;2023-06-14T11:37:28;101389.63;;;28.48;26.41
49072;BME280;52656;52.610;10.236;2023-06-14T11:39:58;101373.22;;;28.74;26.64
49072;BME280;52656;52.610;10.236;2023-06-14T11:42:26;101390.91;;;29.04;26.28
49072;BME280;52656;52.610;10.236;2023-06-14T11:44:53;101377.72;;;29.99;24.96
49072;BME280;52656;52.610;10.236;2023-06-14T11:47:19;101364.72;;;29.27;25.73
49072;BME280;52656;52.610;10.236;2023-06-14T11:49:44;101369.88;;;29.96;25.00
49072;BME280;52656;52.610;10.236;2023-06-14T11:52:11;101363.72;;;29.69;25.22
49072;BME280;52656;52.610;10.236;2023-06-14T11:54:37;101377.97;;;27.86;27.09
49072;BME280;52656;52.610;10.236;2023-06-14T11:57:03;101372.44;;;28.21;26.77
49072;BME280;52656;52.610;10.236;2023-06-14T11:59:29;101376.47;;;27.91;27.56
49072;BME280;52656;52.610;10.236;2023-06-14T12:01:56;101388.25;;;27.74;26.94
49072;BME280;52656;52.610;10.236;2023-06-14T12:04:26;101370.44;;;28.66;26.40
49072;BME280;52656;52.610;10.236;2023-06-14T12:06:52;101371.19;;;28.42;26.66
49072;BME280;52656;52.610;10.236;2023-06-14T12:09:18;101376.25;;;28.63;25.86
49072;BME280;52656;52.610;10.236;2023-06-14T12:11:45;101370.94;;;28.27;26.10
49072;BME280;52656;52.610;10.236;2023-06-14T12:14:10;101383.13;;;27.97;26.72
49072;BME280;52656;52.610;10.236;2023-06-14T12:16:38;101368.47;;;28.16;27.04
49072;BME280;52656;52.610;10.236;2023-06-14T12:19:15;101379.03;;;27.93;27.51
49072;BME280;52656;52.610;10.236;2023-06-14T12:21:41;101361.75;;;28.62;25.82
49072;BME280;52656;52.610;10.236;2023-06-14T12:24:07;101345.72;;;28.93;25.73
49072;BME280;52656;52.610;10.236;2023-06-14T12:26:33;101359.28;;;29.60;25.38
49072;BME280;52656;52.610;10.236;2023-06-14T12:28:59;101363.03;;;28.76;26.74
49072;BME280;52656;52.610;10.236;2023-06-14T12:31:24;101370.66;;;28.12;26.44
49072;BME280;52656;52.610;10.236;2023-06-14T12:33:50;101372.03;;;27.90;26.78
49072;BME280;52656;52.610;10.236;2023-06-14T12:36:16;101368.78;;;27.15;27.90
49072;BME280;52656;52.610;10.236;2023-06-14T12:38:44;101369.50;;;28.15;27.15
49072;BME280;52656;52.610;10.236;2023-06-14T12:41:11;101368.41;;;27.81;27.30
49072;BME280;52656;52.610;10.236;2023-06-14T12:43:36;101374.88;;;27.63;27.66
49072;BME280;52656;52.610;10.236;2023-06-14T12:46:02;101375.50;;;28.00;26.91
49072;BME280;52656;52.610;10.236;2023-06-14T12:48:27;101371.31;;;27.62;27.48
49072;BME280;52656;52.610;10.236;2023-06-14T12:50:53;101369.81;;;28.12;27.44
49072;BME280;52656;52.610;10.236;2023-06-14T12:53:18;101370.16;;;28.35;26.98